sensor_id;sensor_type;location;lat;lon;timestamp;temperature;humidity
3350;DHT22;1688;51.000;13.684;2023-09-19T00:00:44;18.90;99.90
3350;DHT22;1688;51.000;13.684;2023-09-19T00:03:20;18.90;99.90
3350;DHT22;1688;51.000;13.684;2023-09-19T00:05:53;18.90;99.90
3350;DHT22;1688;51.000;13.684;2023-09-19T00:08:25;18.80;99.90
3350;DHT22;1688;51.000;13.684;2023-09-19T00:10:58;18.80;99.90
3350;DHT22;1688;51.000;13.684;2023-09-19T00:13:38;18.80;99.90
3350;DHT22;1688;51.000;13.684;2023-09-19T00:16:12;18.80;99.90
3350;DHT22;1688;51.000;13.684;2023-09-19T00:18:45;18.90;99.90
3350;DHT22;1688;51.000;13.684;2023-09-19T00:21:18;18.90;99.90
3350;DHT22;1688;51.000;13.684;2023-09-19T00:23:52;18.90;99.90
3350;DHT22;1688;51.000;13.684;2023-09-19T00:26:25;19.00;99.90
3350;DHT22;1688;51.000;13.684;2023-09-19T00:28:57;19.00;99.90
3350;DHT22;1688;51.000;13.684;2023-09-19T00:31:37;19.00;99.90
3350;DHT22;1688;51.000;13.684;2023-09-19T00:34:10;19.00;99.90
3350;DHT22;1688;51.000;13.684;2023-09-19T00:36:43;19.00;99.90
3350;DHT22;1688;51.000;13.684;2023-09-19T00:39:17;19.00;99.90
3350;DHT22;1688;51.000;13.684;2023-09-19T00:41:53;19.00;99.90
3350;DHT22;1688;51.000;13.684;2023-09-19T00:44:28;19.10;99.90
3350;DHT22;1688;51.000;13.684;2023-09-19T00:47:01;19.10;99.90
3350;DHT22;1688;51.000;13.684;2023-09-19T00:49:35;19.20;99.90
3350;DHT22;1688;51.000;13.684;2023-09-19T00:52:08;19.20;99.90
3350;DHT22;1688;51.000;13.684;2023-09-19T00:54:43;19.30;99.90
3350;DHT22;1688;51.000;13.684;2023-09-19T00:57:16;19.20;99.90
3350;DHT22;1688;51.000;13.684;2023-09-19T00:59:54;19.20;99.90
3350;DHT22;1688;51.000;13.684;2023-09-19T01:02:27;19.20;99.90
3350;DHT22;1688;51.000;13.684;2023-09-19T01:05:01;19.20;99.90
3350;DHT22;1688;51.000;13.684;2023-09-19T01:07:36;19.20;99.90
3350;DHT22;1688;51.000;13.684;2023-09-19T01:10:14;19.30;99.90
3350;DHT22;1688;51.000;13.684;2023-09-19T01:20:29;19.30;99.90
3350;DHT22;1688;51.000;13.684;2023-09-19T01:23:10;19.40;99.90
3350;DHT22;1688;51.000;13.684;2023-09-19T01:31:53;19.50;99.90
3350;DHT22;1688;51.000;13.684;2023-09-19T01:34:27;19.50;99.90
3350;DHT22;1688;51.000;13.684;2023-09-19T01:37:00;19.50;99.90
3350;DHT22;1688;51.000;13.684;2023-09-19T01:39:34;19.40;99.90
3350;DHT22;1688;51.000;13.684;2023-09-19T01:42:21;19.40;99.90
3350;DHT22;1688;51.000;13.684;2023-09-19T01:45:06;19.40;99.90
3350;DHT22;1688;51.000;13.684;2023-09-19T01:47:49;19.40;99.90
3350;DHT22;1688;51.000;13.684;2023-09-19T01:50:34;19.40;99.90
3350;DHT22;1688;51.000;13.684;2023-09-19T01:53:25;19.40;99.90
3350;DHT22;1688;51.000;13.684;2023-09-19T01:56:01;19.40;99.90
3350;DHT22;1688;51.000;13.684;2023-09-19T01:58:42;19.40;99.90
3350;DHT22;1688;51.000;13.684;2023-09-19T02:01:21;19.40;99.90
3350;DHT22;1688;51.000;13.684;2023-09-19T02:03:54;19.30;99.90
3350;DHT22;1688;51.000;13.684;2023-09-19T02:06:29;19.40;99.90
3350;DHT22;1688;51.000;13.684;2023-09-19T02:09:02;19.40;99.90
3350;DHT22;1688;51.000;13.684;2023-09-19T02:11:36;19.40;99.90
3350;DHT22;1688;51.000;13.684;2023-09-19T02:14:09;19.30;99.90
3350;DHT22;1688;51.000;13.684;2023-09-19T02:16:42;19.30;99.90
3350;DHT22;1688;51.000;13.684;2023-09-19T02:19:15;19.20;99.90
3350;DHT22;1688;51.000;13.684;2023-09-19T02:21:48;19.20;99.90
3350;DHT22;1688;51.000;13.684;2023-09-19T02:24:21;19.20;99.90
3350;DHT22;1688;51.000;13.684;2023-09-19T02:26:54;19.20;99.90
3350;DHT22;1688;51.000;13.684;2023-09-19T02:29:28;19.20;99.90
3350;DHT22;1688;51.000;13.684;2023-09-19T02:32:01;19.20;99.90
3350;DHT22;1688;51.000;13.684;2023-09-19T02:34:36;19.20;99.90
3350;DHT22;1688;51.000;13.684;2023-09-19T02:37:09;19.20;99.90
3350;DHT22;1688;51.000;13.684;2023-09-19T02:39:42;19.20;99.90
3350;DHT22;1688;51.000;13.684;2023-09-19T02:42:15;19.10;99.90
3350;DHT22;1688;51.000;13.684;2023-09-19T02:44:48;19.10;99.90
3350;DHT22;1688;51.000;13.684;2023-09-19T02:47:21;19.10;99.90
3350;DHT22;1688;51.000;13.684;2023-09-19T02:49:54;19.00;99.90
3350;DHT22;1688;51.000;13.684;2023-09-19T02:52:27;19.00;99.90
3350;DHT22;1688;51.000;13.684;2023-09-19T02:55:00;18.90;99.90
3350;DHT22;1688;51.000;13.684;2023-09-19T02:57:33;18.90;99.90
3350;DHT22;1688;51.000;13.684;2023-09-19T03:00:08;19.00;99.90
3350;DHT22;1688;51.000;13.684;2023-09-19T03:02:43;19.00;99.90
3350;DHT22;1688;51.000;13.684;2023-09-19T03:05:17;19.10;99.90
3350;DHT22;1688;51.000;13.684;2023-09-19T03:07:50;19.10;99.90
3350;DHT22;1688;51.000;13.684;2023-09-19T03:10:23;19.10;99.90
3350;DHT22;1688;51.000;13.684;2023-09-19T03:12:58;19.00;99.90
3350;DHT22;1688;51.000;13.684;2023-09-19T03:15:34;19.00;99.90
3350;DHT22;1688;51.000;13.684;2023-09-19T03:18:08;18.90;99.90
3350;DHT22;1688;51.000;13.684;2023-09-19T03:20:42;19.00;99.90
3350;DHT22;1688;51.000;13.684;2023-09-19T03:23:15;19.00;99.90
3350;DHT22;1688;51.000;13.684;2023-09-19T03:25:49;19.00;99.90
3350;DHT22;1688;51.000;13.684;2023-09-19T03:28:23;19.00;99.90
3350;DHT22;1688;51.000;13.684;2023-09-19T03:31:03;19.00;99.90
3350;DHT22;1688;51.000;13.684;2023-09-19T03:33:37;18.90;99.90
3350;DHT22;1688;51.000;13.684;2023-09-19T03:36:10;19.00;99.90
3350;DHT22;1688;51.000;13.684;2023-09-19T03:38:46;19.00;99.90
3350;DHT22;1688;51.000;13.684;2023-09-19T03:41:18;19.00;99.90
3350;DHT22;1688;51.000;13.684;2023-09-19T03:43:52;18.90;99.90
3350;DHT22;1688;51.000;13.684;2023-09-19T03:46:25;19.00;99.90
3350;DHT22;1688;51.000;13.684;2023-09-19T03:48:59;19.00;99.90
3350;DHT22;1688;51.000;13.684;2023-09-19T03:51:32;18.90;99.90
3350;DHT22;1688;51.000;13.684;2023-09-19T03:54:07;18.90;99.90
3350;DHT22;1688;51.000;13.684;2023-09-19T03:56:40;18.90;99.90
3350;DHT22;1688;51.000;13.684;2023-09-19T03:59:13;18.90;99.90
3350;DHT22;1688;51.000;13.684;2023-09-19T04:01:46;19.00;99.90
3350;DHT22;1688;51.000;13.684;2023-09-19T04:04:19;19.00;99.90
3350;DHT22;1688;51.000;13.684;2023-09-19T04:06:52;18.90;99.90
3350;DHT22;1688;51.000;13.684;2023-09-19T04:09:25;18.90;99.90
3350;DHT22;1688;51.000;13.684;2023-09-19T04:11:58;18.90;99.90
3350;DHT22;1688;51.000;13.684;2023-09-19T04:14:31;18.90;99.90
3350;DHT22;1688;51.000;13.684;2023-09-19T04:17:04;18.90;99.90
3350;DHT22;1688;51.000;13.684;2023-09-19T04:19:40;18.90;99.90
3350;DHT22;1688;51.000;13.684;2023-09-19T04:22:14;18.80;99.90
3350;DHT22;1688;51.000;13.684;2023-09-19T04:24:47;18.80;99.90
3350;DHT22;1688;51.000;13.684;2023-09-19T04:27:20;18.80;99.90
3350;DHT22;1688;51.000;13.684;2023-09-19T04:29:53;18.90;99.90
3350;DHT22;1688;51.000;13.684;2023-09-19T04:32:29;18.90;99.90
3350;DHT22;1688;51.000;13.684;2023-09-19T04:35:02;18.90;99.90
3350;DHT22;1688;51.000;13.684;2023-09-19T04:37:38;18.90;99.90
3350;DHT22;1688;51.000;13.684;2023-09-19T04:40:12;18.90;99.90
3350;DHT22;1688;51.000;13.684;2023-09-19T04:42:55;18.80;99.90
3350;DHT22;1688;51.000;13.684;2023-09-19T04:45:29;18.80;99.90
3350;DHT22;1688;51.000;13.684;2023-09-19T04:48:02;18.80;99.90
3350;DHT22;1688;51.000;13.684;2023-09-19T04:50:35;18.80;99.90
3350;DHT22;1688;51.000;13.684;2023-09-19T04:53:09;18.80;99.90
3350;DHT22;1688;51.000;13.684;2023-09-19T04:55:42;18.70;99.90
3350;DHT22;1688;51.000;13.684;2023-09-19T04:58:15;18.70;99.90
3350;DHT22;1688;51.000;13.684;2023-09-19T05:00:49;18.70;99.90
3350;DHT22;1688;51.000;13.684;2023-09-19T05:03:24;18.80;99.90
3350;DHT22;1688;51.000;13.684;2023-09-19T05:05:57;18.80;99.90
3350;DHT22;1688;51.000;13.684;2023-09-19T05:08:29;18.90;99.90
3350;DHT22;1688;51.000;13.684;2023-09-19T05:11:02;18.80;99.90
3350;DHT22;1688;51.000;13.684;2023-09-19T05:13:35;18.80;99.90
3350;DHT22;1688;51.000;13.684;2023-09-19T05:16:08;18.80;99.90
3350;DHT22;1688;51.000;13.684;2023-09-19T05:18:42;18.80;99.90
3350;DHT22;1688;51.000;13.684;2023-09-19T05:21:15;18.80;99.90
3350;DHT22;1688;51.000;13.684;2023-09-19T05:23:48;18.80;99.90
3350;DHT22;1688;51.000;13.684;2023-09-19T05:26:22;18.80;99.90
3350;DHT22;1688;51.000;13.684;2023-09-19T05:28:55;18.80;99.90
3350;DHT22;1688;51.000;13.684;2023-09-19T05:31:28;18.80;99.90
3350;DHT22;1688;51.000;13.684;2023-09-19T05:34:01;18.80;99.90
3350;DHT22;1688;51.000;13.684;2023-09-19T05:36:34;18.80;99.90
3350;DHT22;1688;51.000;13.684;2023-09-19T05:39:06;18.80;99.90
3350;DHT22;1688;51.000;13.684;2023-09-19T05:41:42;18.80;99.90
3350;DHT22;1688;51.000;13.684;2023-09-19T05:44:15;18.80;99.90
3350;DHT22;1688;51.000;13.684;2023-09-19T05:46:47;18.80;99.90
3350;DHT22;1688;51.000;13.684;2023-09-19T05:49:21;18.80;99.90
3350;DHT22;1688;51.000;13.684;2023-09-19T05:51:54;18.80;99.90
3350;DHT22;1688;51.000;13.684;2023-09-19T05:54:29;18.80;99.90
3350;DHT22;1688;51.000;13.684;2023-09-19T05:57:02;18.80;99.90
3350;DHT22;1688;51.000;13.684;2023-09-19T05:59:35;18.80;99.90
3350;DHT22;1688;51.000;13.684;2023-09-19T06:02:08;18.80;99.90
3350;DHT22;1688;51.000;13.684;2023-09-19T06:04:42;18.80;99.90
3350;DHT22;1688;51.000;13.684;2023-09-19T06:07:15;18.80;99.90
3350;DHT22;1688;51.000;13.684;2023-09-19T06:09:49;18.80;99.90
3350;DHT22;1688;51.000;13.684;2023-09-19T06:12:22;18.80;99.90
3350;DHT22;1688;51.000;13.684;2023-09-19T06:14:54;18.80;99.90
3350;DHT22;1688;51.000;13.684;2023-09-19T06:17:27;18.90;99.90
3350;DHT22;1688;51.000;13.684;2023-09-19T06:20:01;18.90;99.90
3350;DHT22;1688;51.000;13.684;2023-09-19T06:22:36;18.90;99.90
3350;DHT22;1688;51.000;13.684;2023-09-19T06:25:11;18.80;99.90
3350;DHT22;1688;51.000;13.684;2023-09-19T06:27:46;18.90;99.90
3350;DHT22;1688;51.000;13.684;2023-09-19T06:30:20;18.90;99.90
3350;DHT22;1688;51.000;13.684;2023-09-19T06:32:58;19.00;99.90
3350;DHT22;1688;51.000;13.684;2023-09-19T06:35:32;19.10;99.90
3350;DHT22;1688;51.000;13.684;2023-09-19T06:38:06;19.10;99.90
3350;DHT22;1688;51.000;13.684;2023-09-19T06:40:40;19.10;99.90
3350;DHT22;1688;51.000;13.684;2023-09-19T06:43:15;19.20;99.90
3350;DHT22;1688;51.000;13.684;2023-09-19T06:45:48;19.30;99.90
3350;DHT22;1688;51.000;13.684;2023-09-19T06:48:21;19.30;99.90
3350;DHT22;1688;51.000;13.684;2023-09-19T06:50:54;19.50;99.90
3350;DHT22;1688;51.000;13.684;2023-09-19T06:53:27;19.50;99.90
3350;DHT22;1688;51.000;13.684;2023-09-19T06:56:04;19.60;99.90
3350;DHT22;1688;51.000;13.684;2023-09-19T06:58:37;19.70;99.90
3350;DHT22;1688;51.000;13.684;2023-09-19T07:01:11;19.80;99.90
3350;DHT22;1688;51.000;13.684;2023-09-19T07:03:43;20.00;99.90
3350;DHT22;1688;51.000;13.684;2023-09-19T07:06:18;20.10;99.90
3350;DHT22;1688;51.000;13.684;2023-09-19T07:08:51;20.30;99.90
3350;DHT22;1688;51.000;13.684;2023-09-19T07:11:24;20.60;99.90
3350;DHT22;1688;51.000;13.684;2023-09-19T07:13:57;20.70;99.90
3350;DHT22;1688;51.000;13.684;2023-09-19T07:16:30;20.80;99.90
3350;DHT22;1688;51.000;13.684;2023-09-19T07:19:04;20.90;99.90
3350;DHT22;1688;51.000;13.684;2023-09-19T07:21:37;20.90;99.90
3350;DHT22;1688;51.000;13.684;2023-09-19T07:24:11;21.00;99.90
3350;DHT22;1688;51.000;13.684;2023-09-19T07:26:45;21.00;99.90
3350;DHT22;1688;51.000;13.684;2023-09-19T07:29:18;20.90;99.90
3350;DHT22;1688;51.000;13.684;2023-09-19T07:31:51;20.90;99.90
3350;DHT22;1688;51.000;13.684;2023-09-19T07:34:24;20.80;99.90
3350;DHT22;1688;51.000;13.684;2023-09-19T07:36:57;20.80;99.90
3350;DHT22;1688;51.000;13.684;2023-09-19T07:39:29;20.80;99.90
3350;DHT22;1688;51.000;13.684;2023-09-19T07:42:02;20.70;99.90
3350;DHT22;1688;51.000;13.684;2023-09-19T07:44:35;20.60;99.90
3350;DHT22;1688;51.000;13.684;2023-09-19T07:47:09;20.60;99.90
3350;DHT22;1688;51.000;13.684;2023-09-19T07:49:42;20.60;99.90
3350;DHT22;1688;51.000;13.684;2023-09-19T07:52:15;20.80;99.90
3350;DHT22;1688;51.000;13.684;2023-09-19T07:54:48;21.00;99.90
3350;DHT22;1688;51.000;13.684;2023-09-19T07:57:22;21.20;99.90
3350;DHT22;1688;51.000;13.684;2023-09-19T07:59:54;21.20;99.90
3350;DHT22;1688;51.000;13.684;2023-09-19T08:02:27;21.30;99.90
3350;DHT22;1688;51.000;13.684;2023-09-19T08:05:01;21.20;99.90
3350;DHT22;1688;51.000;13.684;2023-09-19T08:07:40;21.30;99.90
3350;DHT22;1688;51.000;13.684;2023-09-19T08:10:13;21.40;99.90
3350;DHT22;1688;51.000;13.684;2023-09-19T08:12:48;21.60;99.90
3350;DHT22;1688;51.000;13.684;2023-09-19T08:15:22;21.60;99.90
3350;DHT22;1688;51.000;13.684;2023-09-19T08:17:54;21.70;99.90
3350;DHT22;1688;51.000;13.684;2023-09-19T08:20:27;21.90;99.90
3350;DHT22;1688;51.000;13.684;2023-09-19T08:23:00;22.10;99.90
3350;DHT22;1688;51.000;13.684;2023-09-19T08:25:33;22.10;99.90
3350;DHT22;1688;51.000;13.684;2023-09-19T08:28:06;22.20;99.90
3350;DHT22;1688;51.000;13.684;2023-09-19T08:30:41;22.20;99.90
3350;DHT22;1688;51.000;13.684;2023-09-19T08:33:14;22.30;99.90
3350;DHT22;1688;51.000;13.684;2023-09-19T08:35:48;22.40;99.90
3350;DHT22;1688;51.000;13.684;2023-09-19T08:38:21;22.40;99.90
3350;DHT22;1688;51.000;13.684;2023-09-19T08:40:53;22.40;99.90
3350;DHT22;1688;51.000;13.684;2023-09-19T08:43:27;22.50;99.90
3350;DHT22;1688;51.000;13.684;2023-09-19T08:46:16;22.70;99.90
3350;DHT22;1688;51.000;13.684;2023-09-19T08:49:03;22.90;99.90
3350;DHT22;1688;51.000;13.684;2023-09-19T08:51:43;23.20;99.90
3350;DHT22;1688;51.000;13.684;2023-09-19T08:54:21;23.30;99.90
3350;DHT22;1688;51.000;13.684;2023-09-19T08:56:55;23.30;99.90
3350;DHT22;1688;51.000;13.684;2023-09-19T08:59:32;23.40;99.90
3350;DHT22;1688;51.000;13.684;2023-09-19T09:02:12;23.60;99.90
3350;DHT22;1688;51.000;13.684;2023-09-19T09:04:45;23.70;99.90
3350;DHT22;1688;51.000;13.684;2023-09-19T09:07:20;23.90;99.90
3350;DHT22;1688;51.000;13.684;2023-09-19T09:09:54;23.90;99.90
3350;DHT22;1688;51.000;13.684;2023-09-19T09:12:27;24.10;99.50
3350;DHT22;1688;51.000;13.684;2023-09-19T09:15:02;24.00;98.30
3350;DHT22;1688;51.000;13.684;2023-09-19T09:17:36;24.00;98.20
3350;DHT22;1688;51.000;13.684;2023-09-19T09:20:09;24.00;98.20
3350;DHT22;1688;51.000;13.684;2023-09-19T09:22:52;23.90;97.90
3350;DHT22;1688;51.000;13.684;2023-09-19T09:25:52;23.90;97.90
3350;DHT22;1688;51.000;13.684;2023-09-19T09:28:34;23.90;98.10
3350;DHT22;1688;51.000;13.684;2023-09-19T09:31:22;23.90;97.90
3350;DHT22;1688;51.000;13.684;2023-09-19T09:33:56;23.70;98.00
3350;DHT22;1688;51.000;13.684;2023-09-19T09:36:38;23.60;98.60
3350;DHT22;1688;51.000;13.684;2023-09-19T09:39:11;23.60;99.00
3350;DHT22;1688;51.000;13.684;2023-09-19T09:41:58;23.60;98.60
3350;DHT22;1688;51.000;13.684;2023-09-19T09:44:32;23.60;98.40
3350;DHT22;1688;51.000;13.684;2023-09-19T09:47:05;23.80;98.20
3350;DHT22;1688;51.000;13.684;2023-09-19T09:49:58;23.90;98.10
3350;DHT22;1688;51.000;13.684;2023-09-19T09:52:46;23.90;98.00
3350;DHT22;1688;51.000;13.684;2023-09-19T09:55:20;23.70;97.50
3350;DHT22;1688;51.000;13.684;2023-09-19T09:58:16;23.60;98.00
3350;DHT22;1688;51.000;13.684;2023-09-19T10:00:54;23.50;98.50
3350;DHT22;1688;51.000;13.684;2023-09-19T10:03:37;23.80;98.50
3350;DHT22;1688;51.000;13.684;2023-09-19T10:06:20;25.50;98.40
3350;DHT22;1688;51.000;13.684;2023-09-19T10:09:03;27.80;94.10
3350;DHT22;1688;51.000;13.684;2023-09-19T10:11:42;28.10;92.40
3350;DHT22;1688;51.000;13.684;2023-09-19T10:14:26;29.90;90.90
3350;DHT22;1688;51.000;13.684;2023-09-19T10:17:06;31.20;83.70
3350;DHT22;1688;51.000;13.684;2023-09-19T10:19:47;31.10;79.60
3350;DHT22;1688;51.000;13.684;2023-09-19T10:22:26;31.90;77.50
3350;DHT22;1688;51.000;13.684;2023-09-19T10:25:00;30.90;76.20
3350;DHT22;1688;51.000;13.684;2023-09-19T10:27:37;29.90;78.10
3350;DHT22;1688;51.000;13.684;2023-09-19T10:30:17;29.00;79.70
3350;DHT22;1688;51.000;13.684;2023-09-19T10:33:01;28.10;81.60
3350;DHT22;1688;51.000;13.684;2023-09-19T10:35:38;27.30;84.40
3350;DHT22;1688;51.000;13.684;2023-09-19T10:38:14;26.80;85.90
3350;DHT22;1688;51.000;13.684;2023-09-19T10:40:56;26.30;85.60
3350;DHT22;1688;51.000;13.684;2023-09-19T10:43:35;25.80;86.80
3350;DHT22;1688;51.000;13.684;2023-09-19T10:46:09;25.40;90.20
3350;DHT22;1688;51.000;13.684;2023-09-19T10:48:45;25.40;91.10
3350;DHT22;1688;51.000;13.684;2023-09-19T10:51:23;25.50;92.00
3350;DHT22;1688;51.000;13.684;2023-09-19T10:54:10;25.60;91.40
3350;DHT22;1688;51.000;13.684;2023-09-19T10:56:50;25.60;91.30
3350;DHT22;1688;51.000;13.684;2023-09-19T10:59:24;25.50;90.90
3350;DHT22;1688;51.000;13.684;2023-09-19T11:01:58;25.40;90.40
3350;DHT22;1688;51.000;13.684;2023-09-19T11:04:35;25.40;91.20
3350;DHT22;1688;51.000;13.684;2023-09-19T11:07:13;25.50;90.40
3350;DHT22;1688;51.000;13.684;2023-09-19T11:09:53;25.60;90.30
3350;DHT22;1688;51.000;13.684;2023-09-19T11:27:10;24.90;87.40
3350;DHT22;1688;51.000;13.684;2023-09-19T11:29:45;24.90;85.40
3350;DHT22;1688;51.000;13.684;2023-09-19T11:36:02;24.90;83.70
3350;DHT22;1688;51.000;13.684;2023-09-19T11:49:32;25.10;83.90
3350;DHT22;1688;51.000;13.684;2023-09-19T11:52:05;24.90;83.30
3350;DHT22;1688;51.000;13.684;2023-09-19T11:54:41;24.80;85.30
3350;DHT22;1688;51.000;13.684;2023-09-19T11:57:20;24.80;85.50
3350;DHT22;1688;51.000;13.684;2023-09-19T11:59:54;25.10;87.00
3350;DHT22;1688;51.000;13.684;2023-09-19T12:02:39;25.30;86.10
3350;DHT22;1688;51.000;13.684;2023-09-19T12:05:15;25.60;85.50
3350;DHT22;1688;51.000;13.684;2023-09-19T12:07:47;25.70;84.20
3350;DHT22;1688;51.000;13.684;2023-09-19T12:10:21;25.60;82.60
3350;DHT22;1688;51.000;13.684;2023-09-19T12:12:56;25.70;83.80
3350;DHT22;1688;51.000;13.684;2023-09-19T12:15:32;25.60;83.50
3350;DHT22;1688;51.000;13.684;2023-09-19T12:18:27;25.60;83.40
3350;DHT22;1688;51.000;13.684;2023-09-19T12:21:00;25.50;82.90
3350;DHT22;1688;51.000;13.684;2023-09-19T12:23:35;25.30;84.50
3350;DHT22;1688;51.000;13.684;2023-09-19T12:26:10;25.10;84.90
3350;DHT22;1688;51.000;13.684;2023-09-19T12:28:45;24.90;86.60
3350;DHT22;1688;51.000;13.684;2023-09-19T12:31:19;24.80;86.20
3350;DHT22;1688;51.000;13.684;2023-09-19T12:33:55;24.80;88.00
3350;DHT22;1688;51.000;13.684;2023-09-19T12:36:28;24.80;88.70
3350;DHT22;1688;51.000;13.684;2023-09-19T12:39:04;24.90;89.50
3350;DHT22;1688;51.000;13.684;2023-09-19T12:41:41;24.90;89.30
3350;DHT22;1688;51.000;13.684;2023-09-19T12:44:14;25.10;89.70
3350;DHT22;1688;51.000;13.684;2023-09-19T12:46:51;25.10;88.50
3350;DHT22;1688;51.000;13.684;2023-09-19T12:49:24;24.90;86.80
3350;DHT22;1688;51.000;13.684;2023-09-19T12:51:57;25.00;88.60
3350;DHT22;1688;51.000;13.684;2023-09-19T12:54:39;25.00;88.10
3350;DHT22;1688;51.000;13.684;2023-09-19T12:57:24;25.10;88.40
3350;DHT22;1688;51.000;13.684;2023-09-19T13:00:04;25.10;85.60
3350;DHT22;1688;51.000;13.684;2023-09-19T13:05:52;25.10;86.20
3350;DHT22;1688;51.000;13.684;2023-09-19T13:08:29;25.30;86.80
3350;DHT22;1688;51.000;13.684;2023-09-19T13:14:13;25.40;86.30
3350;DHT22;1688;51.000;13.684;2023-09-19T13:16:34;25.40;85.10
3350;DHT22;1688;51.000;13.684;2023-09-19T13:19:47;25.30;84.20
3350;DHT22;1688;51.000;13.684;2023-09-19T13:22:42;25.30;85.40
3350;DHT22;1688;51.000;13.684;2023-09-19T13:25:18;25.30;85.70
3350;DHT22;1688;51.000;13.684;2023-09-19T13:27:53;25.10;84.60
3350;DHT22;1688;51.000;13.684;2023-09-19T13:30:28;25.10;83.70
3350;DHT22;1688;51.000;13.684;2023-09-19T13:33:06;25.10;83.40
3350;DHT22;1688;51.000;13.684;2023-09-19T13:35:40;25.00;83.00
3350;DHT22;1688;51.000;13.684;2023-09-19T13:38:14;25.00;84.00
3350;DHT22;1688;51.000;13.684;2023-09-19T13:40:47;25.00;85.30
3350;DHT22;1688;51.000;13.684;2023-09-19T13:43:21;24.90;85.00
3350;DHT22;1688;51.000;13.684;2023-09-19T13:45:54;25.10;84.70
3350;DHT22;1688;51.000;13.684;2023-09-19T13:48:27;25.20;84.60
3350;DHT22;1688;51.000;13.684;2023-09-19T13:51:02;25.30;83.50
3350;DHT22;1688;51.000;13.684;2023-09-19T13:53:38;25.30;82.50
3350;DHT22;1688;51.000;13.684;2023-09-19T13:56:11;25.40;84.00
3350;DHT22;1688;51.000;13.684;2023-09-19T13:58:44;25.40;82.20
3350;DHT22;1688;51.000;13.684;2023-09-19T14:01:17;25.30;81.10
3350;DHT22;1688;51.000;13.684;2023-09-19T14:03:50;25.20;80.60
3350;DHT22;1688;51.000;13.684;2023-09-19T14:06:23;25.20;81.90
3350;DHT22;1688;51.000;13.684;2023-09-19T14:08:56;25.30;81.90
3350;DHT22;1688;51.000;13.684;2023-09-19T14:11:29;25.30;81.10
3350;DHT22;1688;51.000;13.684;2023-09-19T14:14:02;25.50;82.50
3350;DHT22;1688;51.000;13.684;2023-09-19T14:16:37;25.60;79.40
3350;DHT22;1688;51.000;13.684;2023-09-19T14:19:10;25.60;81.00
3350;DHT22;1688;51.000;13.684;2023-09-19T14:21:43;25.80;81.10
3350;DHT22;1688;51.000;13.684;2023-09-19T14:24:19;25.80;80.90
3350;DHT22;1688;51.000;13.684;2023-09-19T14:26:52;25.80;80.40
3350;DHT22;1688;51.000;13.684;2023-09-19T14:29:25;25.80;80.80
3350;DHT22;1688;51.000;13.684;2023-09-19T14:31:57;25.90;79.40
3350;DHT22;1688;51.000;13.684;2023-09-19T14:34:31;26.00;78.90
3350;DHT22;1688;51.000;13.684;2023-09-19T14:37:04;25.80;75.80
3350;DHT22;1688;51.000;13.684;2023-09-19T14:39:40;25.60;76.40
3350;DHT22;1688;51.000;13.684;2023-09-19T14:42:13;25.40;76.10
3350;DHT22;1688;51.000;13.684;2023-09-19T14:44:50;25.40;75.30
3350;DHT22;1688;51.000;13.684;2023-09-19T14:47:23;25.30;75.60
3350;DHT22;1688;51.000;13.684;2023-09-19T14:49:56;25.20;74.30
3350;DHT22;1688;51.000;13.684;2023-09-19T14:52:30;25.20;75.30
3350;DHT22;1688;51.000;13.684;2023-09-19T14:55:03;25.20;75.30
3350;DHT22;1688;51.000;13.684;2023-09-19T14:57:38;25.20;76.00
3350;DHT22;1688;51.000;13.684;2023-09-19T15:00:13;25.20;76.60
3350;DHT22;1688;51.000;13.684;2023-09-19T15:02:46;25.20;77.20
3350;DHT22;1688;51.000;13.684;2023-09-19T15:05:21;25.20;75.60
3350;DHT22;1688;51.000;13.684;2023-09-19T15:07:54;25.20;75.50
3350;DHT22;1688;51.000;13.684;2023-09-19T15:10:28;25.20;76.30
3350;DHT22;1688;51.000;13.684;2023-09-19T15:13:01;25.10;75.40
3350;DHT22;1688;51.000;13.684;2023-09-19T15:15:34;25.00;75.20
3350;DHT22;1688;51.000;13.684;2023-09-19T15:18:07;24.90;74.90
3350;DHT22;1688;51.000;13.684;2023-09-19T15:20:44;24.80;74.80
3350;DHT22;1688;51.000;13.684;2023-09-19T15:23:17;24.60;75.00
3350;DHT22;1688;51.000;13.684;2023-09-19T15:25:51;24.50;75.70
3350;DHT22;1688;51.000;13.684;2023-09-19T15:28:26;24.30;76.00
3350;DHT22;1688;51.000;13.684;2023-09-19T15:31:04;24.30;76.80
3350;DHT22;1688;51.000;13.684;2023-09-19T15:33:37;24.10;76.80
3350;DHT22;1688;51.000;13.684;2023-09-19T15:36:12;24.20;77.90
3350;DHT22;1688;51.000;13.684;2023-09-19T15:41:34;24.20;77.70
3350;DHT22;1688;51.000;13.684;2023-09-19T15:44:17;24.10;76.90
3350;DHT22;1688;51.000;13.684;2023-09-19T15:46:50;24.10;78.00
3350;DHT22;1688;51.000;13.684;2023-09-19T15:49:23;24.00;76.60
3350;DHT22;1688;51.000;13.684;2023-09-19T15:51:56;23.80;76.20
3350;DHT22;1688;51.000;13.684;2023-09-19T15:54:29;23.60;75.80
3350;DHT22;1688;51.000;13.684;2023-09-19T15:57:02;23.50;77.30
3350;DHT22;1688;51.000;13.684;2023-09-19T15:59:35;23.40;76.30
3350;DHT22;1688;51.000;13.684;2023-09-19T16:02:08;23.30;77.10
3350;DHT22;1688;51.000;13.684;2023-09-19T16:04:41;23.10;76.60
3350;DHT22;1688;51.000;13.684;2023-09-19T16:07:16;23.10;77.30
3350;DHT22;1688;51.000;13.684;2023-09-19T16:09:51;23.10;77.60
3350;DHT22;1688;51.000;13.684;2023-09-19T16:12:24;23.10;77.50
3350;DHT22;1688;51.000;13.684;2023-09-19T16:14:57;23.10;77.50
3350;DHT22;1688;51.000;13.684;2023-09-19T16:17:30;22.90;77.80
3350;DHT22;1688;51.000;13.684;2023-09-19T16:20:03;22.90;77.10
3350;DHT22;1688;51.000;13.684;2023-09-19T16:22:36;22.80;76.80
3350;DHT22;1688;51.000;13.684;2023-09-19T16:25:09;22.70;77.40
3350;DHT22;1688;51.000;13.684;2023-09-19T16:27:44;22.60;76.10
3350;DHT22;1688;51.000;13.684;2023-09-19T16:30:17;22.50;76.80
3350;DHT22;1688;51.000;13.684;2023-09-19T16:32:51;22.50;77.10
3350;DHT22;1688;51.000;13.684;2023-09-19T16:35:23;22.50;77.20
3350;DHT22;1688;51.000;13.684;2023-09-19T16:37:56;22.50;77.60
3350;DHT22;1688;51.000;13.684;2023-09-19T16:40:29;22.50;77.50
3350;DHT22;1688;51.000;13.684;2023-09-19T16:43:02;22.40;77.70
3350;DHT22;1688;51.000;13.684;2023-09-19T16:45:35;22.40;77.80
3350;DHT22;1688;51.000;13.684;2023-09-19T16:48:09;22.40;78.20
3350;DHT22;1688;51.000;13.684;2023-09-19T16:50:42;22.40;78.20
3350;DHT22;1688;51.000;13.684;2023-09-19T16:53:16;22.30;78.40
3350;DHT22;1688;51.000;13.684;2023-09-19T16:55:49;22.10;76.70
3350;DHT22;1688;51.000;13.684;2023-09-19T16:58:22;22.10;77.00
3350;DHT22;1688;51.000;13.684;2023-09-19T17:00:59;21.90;76.80
3350;DHT22;1688;51.000;13.684;2023-09-19T17:03:32;21.90;77.70
3350;DHT22;1688;51.000;13.684;2023-09-19T17:06:05;21.80;77.20
3350;DHT22;1688;51.000;13.684;2023-09-19T17:08:39;21.70;76.40
3350;DHT22;1688;51.000;13.684;2023-09-19T17:11:14;21.60;76.70
3350;DHT22;1688;51.000;13.684;2023-09-19T17:13:50;21.60;77.00
3350;DHT22;1688;51.000;13.684;2023-09-19T17:16:25;21.60;76.90
3350;DHT22;1688;51.000;13.684;2023-09-19T17:19:01;21.50;76.70
3350;DHT22;1688;51.000;13.684;2023-09-19T17:21:36;21.50;76.90
3350;DHT22;1688;51.000;13.684;2023-09-19T17:24:09;21.40;77.10
3350;DHT22;1688;51.000;13.684;2023-09-19T17:26:42;21.30;77.10